MUSC Airport Information

Runway Information
Runway 08 Length 9898 ft width 148 ft
Elevation 338 ft Threshold 0 ft Heading 76
Runway 26 Length 9898 ft Width 148 ft
Elevation 318 ft Threshold 0 ft Heading 256
Airport Frequencies
Type TWR Name SANTA CLAR Frequency 118.1 MHZ
Airport Navaids
Type NDB Name Santa Clara Frequency 240 KHZ
Airport Weather Information & NOTAM
ADDS - METARS form results

(1255 UTC 24 January 2019)
Data provider http://aviationweather.gov/metar/data/
 
Forecast for: MUSC (SANTA CLARA , CU)
Text: MUSC 241100Z 2412/2512 16008KT 9000 FEW020
Forecast period: 1200 to 1600 UTC 24 January 2019
Forecast type: FROM: standard forecast or significant change
Winds: from the SSE (160 degrees) at 9 MPH (8 knots; 4.1 m/s)
Visibility: 6 miles (9 km)
Ceiling: at least 12,000 feet AGL
Clouds: few clouds at 2000 feet AGL
Weather: no significant weather forecast for this period
Text: BECMG 2416/2418 18008KT
Forecast period: 1600 UTC 24 January 2019 to 1200 UTC 25 January 2019
Forecast type: BECOMING: Conditions expected to become as follows by 1800 UTC 24 January 2019
Winds: from the S (180 degrees) at 9 MPH (8 knots; 4.1 m/s)
Visibility: 6 miles (9 km)
Ceiling: at least 12,000 feet AGL
Clouds: few clouds at 2000 feet AGL
Weather: no significant weather forecast for this period